sensor_id;sensor_type;location;lat;lon;timestamp;P1;durP1;ratioP1;P2;durP2;ratioP2
29246;SDS011;16272;48.188;9.964;2023-05-16T00:00:17;8.83;;;2.73;;
29246;SDS011;16272;48.188;9.964;2023-05-16T00:02:43;7.38;;;3.03;;
29246;SDS011;16272;48.188;9.964;2023-05-16T00:05:08;8.37;;;3.40;;
29246;SDS011;16272;48.188;9.964;2023-05-16T00:07:44;8.55;;;3.70;;
29246;SDS011;16272;48.188;9.964;2023-05-16T00:10:11;8.85;;;3.58;;
29246;SDS011;16272;48.188;9.964;2023-05-16T00:12:37;8.40;;;3.87;;
29246;SDS011;16272;48.188;9.964;2023-05-16T00:15:04;9.77;;;4.28;;
29246;SDS011;16272;48.188;9.964;2023-05-16T00:17:36;9.45;;;4.20;;
29246;SDS011;16272;48.188;9.964;2023-05-16T00:20:02;9.73;;;4.20;;
29246;SDS011;16272;48.188;9.964;2023-05-16T00:22:31;9.95;;;4.45;;
29246;SDS011;16272;48.188;9.964;2023-05-16T00:24:57;12.17;;;5.30;;
29246;SDS011;16272;48.188;9.964;2023-05-16T00:27:22;10.97;;;5.17;;
29246;SDS011;16272;48.188;9.964;2023-05-16T00:29:48;10.70;;;4.50;;
29246;SDS011;16272;48.188;9.964;2023-05-16T00:32:13;10.77;;;5.00;;
29246;SDS011;16272;48.188;9.964;2023-05-16T00:34:38;9.90;;;4.20;;
29246;SDS011;16272;48.188;9.964;2023-05-16T00:37:04;11.80;;;4.57;;
29246;SDS011;16272;48.188;9.964;2023-05-16T00:39:29;9.70;;;4.25;;
29246;SDS011;16272;48.188;9.964;2023-05-16T00:41:55;11.67;;;4.33;;
29246;SDS011;16272;48.188;9.964;2023-05-16T00:44:21;10.90;;;4.60;;
29246;SDS011;16272;48.188;9.964;2023-05-16T00:46:47;11.63;;;5.10;;
29246;SDS011;16272;48.188;9.964;2023-05-16T00:49:12;11.93;;;5.10;;
29246;SDS011;16272;48.188;9.964;2023-05-16T00:51:38;12.23;;;5.20;;
29246;SDS011;16272;48.188;9.964;2023-05-16T00:54:04;10.75;;;4.90;;
29246;SDS011;16272;48.188;9.964;2023-05-16T00:56:30;11.38;;;5.45;;
29246;SDS011;16272;48.188;9.964;2023-05-16T00:58:56;18.37;;;5.67;;
29246;SDS011;16272;48.188;9.964;2023-05-16T01:01:22;11.20;;;4.95;;
29246;SDS011;16272;48.188;9.964;2023-05-16T01:03:49;11.60;;;5.25;;
29246;SDS011;16272;48.188;9.964;2023-05-16T01:06:14;10.47;;;4.90;;
29246;SDS011;16272;48.188;9.964;2023-05-16T01:08:39;11.57;;;5.37;;
29246;SDS011;16272;48.188;9.964;2023-05-16T01:11:15;12.38;;;5.78;;
29246;SDS011;16272;48.188;9.964;2023-05-16T01:14:28;12.10;;;4.87;;
29246;SDS011;16272;48.188;9.964;2023-05-16T01:27:55;10.77;;;5.10;;
29246;SDS011;16272;48.188;9.964;2023-05-16T01:30:21;12.13;;;5.00;;
29246;SDS011;16272;48.188;9.964;2023-05-16T01:32:46;10.20;;;4.73;;
29246;SDS011;16272;48.188;9.964;2023-05-16T01:35:13;11.17;;;5.07;;
29246;SDS011;16272;48.188;9.964;2023-05-16T01:40:45;10.60;;;4.90;;
29246;SDS011;16272;48.188;9.964;2023-05-16T01:43:20;11.23;;;5.07;;
29246;SDS011;16272;48.188;9.964;2023-05-16T01:45:54;9.93;;;4.68;;
29246;SDS011;16272;48.188;9.964;2023-05-16T01:48:26;10.20;;;4.97;;
29246;SDS011;16272;48.188;9.964;2023-05-16T01:51:02;11.87;;;4.80;;
29246;SDS011;16272;48.188;9.964;2023-05-16T01:53:31;11.25;;;5.13;;
29246;SDS011;16272;48.188;9.964;2023-05-16T01:56:00;9.70;;;4.70;;
29246;SDS011;16272;48.188;9.964;2023-05-16T01:58:29;10.88;;;4.82;;
29246;SDS011;16272;48.188;9.964;2023-05-16T02:01:00;12.57;;;4.90;;
29246;SDS011;16272;48.188;9.964;2023-05-16T02:03:28;11.27;;;5.10;;
29246;SDS011;16272;48.188;9.964;2023-05-16T02:05:54;11.23;;;4.80;;
29246;SDS011;16272;48.188;9.964;2023-05-16T02:08:19;10.37;;;4.63;;
29246;SDS011;16272;48.188;9.964;2023-05-16T02:10:45;10.57;;;4.60;;
29246;SDS011;16272;48.188;9.964;2023-05-16T02:13:11;10.47;;;4.83;;
29246;SDS011;16272;48.188;9.964;2023-05-16T02:15:36;9.83;;;4.60;;
29246;SDS011;16272;48.188;9.964;2023-05-16T02:18:02;9.70;;;4.07;;
29246;SDS011;16272;48.188;9.964;2023-05-16T02:20:27;9.93;;;4.60;;
29246;SDS011;16272;48.188;9.964;2023-05-16T02:22:55;10.57;;;4.77;;
29246;SDS011;16272;48.188;9.964;2023-05-16T02:25:21;12.05;;;5.30;;
29246;SDS011;16272;48.188;9.964;2023-05-16T02:27:47;12.97;;;5.00;;
29246;SDS011;16272;48.188;9.964;2023-05-16T02:30:14;12.35;;;5.05;;
29246;SDS011;16272;48.188;9.964;2023-05-16T02:32:39;10.25;;;4.75;;
29246;SDS011;16272;48.188;9.964;2023-05-16T02:35:05;11.67;;;5.00;;
29246;SDS011;16272;48.188;9.964;2023-05-16T02:37:32;11.10;;;4.30;;
29246;SDS011;16272;48.188;9.964;2023-05-16T02:39:57;10.03;;;4.33;;
29246;SDS011;16272;48.188;9.964;2023-05-16T02:42:24;10.57;;;4.87;;
29246;SDS011;16272;48.188;9.964;2023-05-16T02:44:51;11.48;;;5.18;;
29246;SDS011;16272;48.188;9.964;2023-05-16T02:47:16;10.73;;;4.70;;
29246;SDS011;16272;48.188;9.964;2023-05-16T02:49:42;10.43;;;4.40;;
29246;SDS011;16272;48.188;9.964;2023-05-16T02:52:07;11.35;;;4.07;;
29246;SDS011;16272;48.188;9.964;2023-05-16T02:54:32;9.13;;;4.00;;
29246;SDS011;16272;48.188;9.964;2023-05-16T02:56:57;9.37;;;3.93;;
29246;SDS011;16272;48.188;9.964;2023-05-16T02:59:23;10.93;;;4.10;;
29246;SDS011;16272;48.188;9.964;2023-05-16T03:01:48;9.17;;;3.90;;
29246;SDS011;16272;48.188;9.964;2023-05-16T03:04:13;9.80;;;3.87;;
29246;SDS011;16272;48.188;9.964;2023-05-16T03:06:39;9.47;;;4.07;;
29246;SDS011;16272;48.188;9.964;2023-05-16T03:09:04;8.95;;;3.92;;
29246;SDS011;16272;48.188;9.964;2023-05-16T03:11:30;8.57;;;3.47;;
29246;SDS011;16272;48.188;9.964;2023-05-16T03:13:55;8.70;;;3.80;;
29246;SDS011;16272;48.188;9.964;2023-05-16T03:16:20;8.17;;;3.30;;
29246;SDS011;16272;48.188;9.964;2023-05-16T03:18:46;8.70;;;3.20;;
29246;SDS011;16272;48.188;9.964;2023-05-16T03:21:11;8.60;;;3.20;;
29246;SDS011;16272;48.188;9.964;2023-05-16T03:23:37;7.83;;;3.27;;
29246;SDS011;16272;48.188;9.964;2023-05-16T03:26:02;9.27;;;3.53;;
29246;SDS011;16272;48.188;9.964;2023-05-16T03:28:27;8.67;;;3.07;;
29246;SDS011;16272;48.188;9.964;2023-05-16T03:30:53;8.10;;;3.23;;
29246;SDS011;16272;48.188;9.964;2023-05-16T03:33:18;8.20;;;3.30;;
29246;SDS011;16272;48.188;9.964;2023-05-16T03:35:44;8.50;;;3.47;;
29246;SDS011;16272;48.188;9.964;2023-05-16T03:38:10;8.53;;;3.17;;
29246;SDS011;16272;48.188;9.964;2023-05-16T03:40:35;9.63;;;4.10;;
29246;SDS011;16272;48.188;9.964;2023-05-16T03:43:02;9.30;;;3.93;;
29246;SDS011;16272;48.188;9.964;2023-05-16T03:45:28;9.70;;;3.92;;
29246;SDS011;16272;48.188;9.964;2023-05-16T03:47:54;9.82;;;3.90;;
29246;SDS011;16272;48.188;9.964;2023-05-16T03:50:20;10.60;;;4.27;;
29246;SDS011;16272;48.188;9.964;2023-05-16T03:52:46;9.27;;;4.10;;
29246;SDS011;16272;48.188;9.964;2023-05-16T03:55:12;11.30;;;4.05;;
29246;SDS011;16272;48.188;9.964;2023-05-16T03:57:39;9.40;;;3.60;;
29246;SDS011;16272;48.188;9.964;2023-05-16T04:00:06;10.32;;;4.25;;
29246;SDS011;16272;48.188;9.964;2023-05-16T04:02:32;11.90;;;3.80;;
29246;SDS011;16272;48.188;9.964;2023-05-16T04:04:58;9.63;;;4.40;;
29246;SDS011;16272;48.188;9.964;2023-05-16T04:07:23;10.00;;;4.00;;
29246;SDS011;16272;48.188;9.964;2023-05-16T04:09:50;9.60;;;4.30;;
29246;SDS011;16272;48.188;9.964;2023-05-16T04:12:16;10.55;;;4.03;;
29246;SDS011;16272;48.188;9.964;2023-05-16T04:14:41;10.03;;;4.40;;
29246;SDS011;16272;48.188;9.964;2023-05-16T04:17:06;9.80;;;3.90;;
29246;SDS011;16272;48.188;9.964;2023-05-16T04:19:32;10.23;;;4.07;;
29246;SDS011;16272;48.188;9.964;2023-05-16T04:21:58;10.55;;;4.13;;
29246;SDS011;16272;48.188;9.964;2023-05-16T04:24:23;9.57;;;4.27;;
29246;SDS011;16272;48.188;9.964;2023-05-16T04:26:50;9.27;;;3.60;;
29246;SDS011;16272;48.188;9.964;2023-05-16T04:29:16;8.98;;;3.60;;
29246;SDS011;16272;48.188;9.964;2023-05-16T04:31:41;11.77;;;4.57;;
29246;SDS011;16272;48.188;9.964;2023-05-16T04:34:07;9.17;;;4.00;;
29246;SDS011;16272;48.188;9.964;2023-05-16T04:36:32;10.10;;;3.90;;
29246;SDS011;16272;48.188;9.964;2023-05-16T04:38:59;10.57;;;4.28;;
29246;SDS011;16272;48.188;9.964;2023-05-16T04:41:25;9.83;;;4.13;;
29246;SDS011;16272;48.188;9.964;2023-05-16T04:43:50;8.97;;;4.00;;
29246;SDS011;16272;48.188;9.964;2023-05-16T04:46:15;9.57;;;3.90;;
29246;SDS011;16272;48.188;9.964;2023-05-16T04:48:41;9.83;;;4.10;;
29246;SDS011;16272;48.188;9.964;2023-05-16T04:51:06;9.47;;;4.03;;
29246;SDS011;16272;48.188;9.964;2023-05-16T04:53:31;10.13;;;4.30;;
29246;SDS011;16272;48.188;9.964;2023-05-16T04:55:57;9.63;;;3.88;;
29246;SDS011;16272;48.188;9.964;2023-05-16T04:58:23;10.00;;;3.93;;
29246;SDS011;16272;48.188;9.964;2023-05-16T05:00:52;8.50;;;3.63;;
29246;SDS011;16272;48.188;9.964;2023-05-16T05:03:19;10.10;;;4.00;;
29246;SDS011;16272;48.188;9.964;2023-05-16T05:05:45;10.10;;;4.75;;
29246;SDS011;16272;48.188;9.964;2023-05-16T05:08:11;10.98;;;3.90;;
29246;SDS011;16272;48.188;9.964;2023-05-16T05:10:37;9.17;;;4.13;;
29246;SDS011;16272;48.188;9.964;2023-05-16T05:13:02;10.30;;;4.27;;
29246;SDS011;16272;48.188;9.964;2023-05-16T05:15:27;8.87;;;3.80;;
29246;SDS011;16272;48.188;9.964;2023-05-16T05:17:53;10.67;;;4.10;;
29246;SDS011;16272;48.188;9.964;2023-05-16T05:20:18;10.30;;;4.20;;
29246;SDS011;16272;48.188;9.964;2023-05-16T05:22:43;9.40;;;4.18;;
29246;SDS011;16272;48.188;9.964;2023-05-16T05:25:09;11.53;;;5.10;;
29246;SDS011;16272;48.188;9.964;2023-05-16T05:27:34;11.43;;;4.43;;
29246;SDS011;16272;48.188;9.964;2023-05-16T05:30:00;10.50;;;5.13;;
29246;SDS011;16272;48.188;9.964;2023-05-16T05:32:25;12.63;;;5.28;;
29246;SDS011;16272;48.188;9.964;2023-05-16T05:34:51;11.77;;;5.03;;
29246;SDS011;16272;48.188;9.964;2023-05-16T05:37:16;11.57;;;5.17;;
29246;SDS011;16272;48.188;9.964;2023-05-16T05:39:42;11.67;;;5.23;;
29246;SDS011;16272;48.188;9.964;2023-05-16T05:42:07;14.87;;;5.90;;
29246;SDS011;16272;48.188;9.964;2023-05-16T05:44:33;13.10;;;5.63;;
29246;SDS011;16272;48.188;9.964;2023-05-16T05:46:58;12.90;;;5.93;;
29246;SDS011;16272;48.188;9.964;2023-05-16T05:49:25;12.87;;;6.20;;
29246;SDS011;16272;48.188;9.964;2023-05-16T05:51:51;13.27;;;6.38;;
29246;SDS011;16272;48.188;9.964;2023-05-16T05:54:19;16.07;;;7.70;;
29246;SDS011;16272;48.188;9.964;2023-05-16T05:56:45;15.70;;;7.30;;
29246;SDS011;16272;48.188;9.964;2023-05-16T05:59:10;16.87;;;7.37;;
29246;SDS011;16272;48.188;9.964;2023-05-16T06:01:36;18.20;;;8.10;;
29246;SDS011;16272;48.188;9.964;2023-05-16T06:04:01;14.90;;;7.20;;
29246;SDS011;16272;48.188;9.964;2023-05-16T06:06:27;17.53;;;8.33;;
29246;SDS011;16272;48.188;9.964;2023-05-16T06:08:53;17.40;;;9.40;;
29246;SDS011;16272;48.188;9.964;2023-05-16T06:11:18;19.43;;;9.07;;
29246;SDS011;16272;48.188;9.964;2023-05-16T06:13:45;18.85;;;9.35;;
29246;SDS011;16272;48.188;9.964;2023-05-16T06:16:10;20.17;;;10.02;;
29246;SDS011;16272;48.188;9.964;2023-05-16T06:18:36;20.47;;;9.63;;
29246;SDS011;16272;48.188;9.964;2023-05-16T06:21:01;17.57;;;9.23;;
29246;SDS011;16272;48.188;9.964;2023-05-16T06:23:28;19.87;;;9.83;;
29246;SDS011;16272;48.188;9.964;2023-05-16T06:25:53;18.88;;;8.85;;
29246;SDS011;16272;48.188;9.964;2023-05-16T06:28:19;18.20;;;9.10;;
29246;SDS011;16272;48.188;9.964;2023-05-16T06:30:44;19.42;;;9.05;;
29246;SDS011;16272;48.188;9.964;2023-05-16T06:33:11;19.10;;;9.48;;
29246;SDS011;16272;48.188;9.964;2023-05-16T06:35:38;18.77;;;9.97;;
29246;SDS011;16272;48.188;9.964;2023-05-16T06:38:03;21.02;;;10.00;;
29246;SDS011;16272;48.188;9.964;2023-05-16T06:40:28;19.87;;;9.80;;
29246;SDS011;16272;48.188;9.964;2023-05-16T06:42:54;20.90;;;10.13;;
29246;SDS011;16272;48.188;9.964;2023-05-16T06:45:19;21.13;;;11.00;;
29246;SDS011;16272;48.188;9.964;2023-05-16T06:47:44;22.63;;;10.87;;
29246;SDS011;16272;48.188;9.964;2023-05-16T06:50:10;23.60;;;11.30;;
29246;SDS011;16272;48.188;9.964;2023-05-16T06:52:35;22.57;;;11.83;;
29246;SDS011;16272;48.188;9.964;2023-05-16T06:55:01;23.43;;;11.23;;
29246;SDS011;16272;48.188;9.964;2023-05-16T06:57:26;23.47;;;11.63;;
29246;SDS011;16272;48.188;9.964;2023-05-16T06:59:53;23.83;;;11.48;;
29246;SDS011;16272;48.188;9.964;2023-05-16T07:02:18;25.57;;;11.80;;
29246;SDS011;16272;48.188;9.964;2023-05-16T07:04:43;25.13;;;12.27;;
29246;SDS011;16272;48.188;9.964;2023-05-16T07:07:09;25.87;;;12.53;;
29246;SDS011;16272;48.188;9.964;2023-05-16T07:09:34;24.33;;;11.50;;
29246;SDS011;16272;48.188;9.964;2023-05-16T07:12:00;26.07;;;13.23;;
29246;SDS011;16272;48.188;9.964;2023-05-16T07:14:25;26.08;;;13.05;;
29246;SDS011;16272;48.188;9.964;2023-05-16T07:16:51;26.00;;;12.33;;
29246;SDS011;16272;48.188;9.964;2023-05-16T07:19:16;24.80;;;12.23;;
29246;SDS011;16272;48.188;9.964;2023-05-16T07:21:41;24.67;;;12.70;;
29246;SDS011;16272;48.188;9.964;2023-05-16T07:24:07;27.30;;;12.90;;
29246;SDS011;16272;48.188;9.964;2023-05-16T07:26:32;24.80;;;12.60;;
29246;SDS011;16272;48.188;9.964;2023-05-16T07:28:57;24.17;;;12.35;;
29246;SDS011;16272;48.188;9.964;2023-05-16T07:31:23;25.73;;;12.73;;
29246;SDS011;16272;48.188;9.964;2023-05-16T07:33:48;23.53;;;12.53;;
29246;SDS011;16272;48.188;9.964;2023-05-16T07:36:14;26.23;;;12.80;;
29246;SDS011;16272;48.188;9.964;2023-05-16T07:38:39;24.50;;;12.80;;
29246;SDS011;16272;48.188;9.964;2023-05-16T07:41:05;24.73;;;12.93;;
29246;SDS011;16272;48.188;9.964;2023-05-16T07:43:30;23.53;;;12.67;;
29246;SDS011;16272;48.188;9.964;2023-05-16T07:45:59;25.67;;;13.10;;
29246;SDS011;16272;48.188;9.964;2023-05-16T07:48:24;22.60;;;11.73;;
29246;SDS011;16272;48.188;9.964;2023-05-16T07:50:50;26.57;;;12.87;;
29246;SDS011;16272;48.188;9.964;2023-05-16T07:53:16;25.15;;;13.38;;
29246;SDS011;16272;48.188;9.964;2023-05-16T07:55:41;23.27;;;11.80;;
29246;SDS011;16272;48.188;9.964;2023-05-16T07:58:07;23.07;;;12.10;;
29246;SDS011;16272;48.188;9.964;2023-05-16T08:00:32;24.20;;;12.30;;
29246;SDS011;16272;48.188;9.964;2023-05-16T08:02:57;27.40;;;13.20;;
29246;SDS011;16272;48.188;9.964;2023-05-16T08:05:23;24.98;;;12.10;;
29246;SDS011;16272;48.188;9.964;2023-05-16T08:07:49;24.80;;;12.77;;
29246;SDS011;16272;48.188;9.964;2023-05-16T08:10:14;25.10;;;12.93;;
29246;SDS011;16272;48.188;9.964;2023-05-16T08:12:40;23.92;;;12.43;;
29246;SDS011;16272;48.188;9.964;2023-05-16T08:15:05;28.63;;;12.73;;
29246;SDS011;16272;48.188;9.964;2023-05-16T08:17:31;25.73;;;12.57;;
29246;SDS011;16272;48.188;9.964;2023-05-16T08:19:56;25.33;;;12.80;;
29246;SDS011;16272;48.188;9.964;2023-05-16T08:22:23;25.15;;;13.02;;
29246;SDS011;16272;48.188;9.964;2023-05-16T08:24:49;27.73;;;14.00;;
29246;SDS011;16272;48.188;9.964;2023-05-16T08:27:14;27.50;;;14.18;;
29246;SDS011;16272;48.188;9.964;2023-05-16T08:29:40;25.10;;;13.17;;
29246;SDS011;16272;48.188;9.964;2023-05-16T08:32:07;24.43;;;12.53;;
29246;SDS011;16272;48.188;9.964;2023-05-16T08:34:33;23.42;;;12.85;;
29246;SDS011;16272;48.188;9.964;2023-05-16T08:36:59;24.03;;;13.00;;
29246;SDS011;16272;48.188;9.964;2023-05-16T08:39:24;23.03;;;12.77;;
29246;SDS011;16272;48.188;9.964;2023-05-16T08:41:50;23.25;;;13.00;;
29246;SDS011;16272;48.188;9.964;2023-05-16T08:44:15;23.03;;;12.43;;
29246;SDS011;16272;48.188;9.964;2023-05-16T08:46:48;21.50;;;11.55;;
29246;SDS011;16272;48.188;9.964;2023-05-16T08:49:15;23.40;;;11.93;;
29246;SDS011;16272;48.188;9.964;2023-05-16T08:51:42;22.17;;;12.27;;
29246;SDS011;16272;48.188;9.964;2023-05-16T08:54:10;22.40;;;12.32;;
29246;SDS011;16272;48.188;9.964;2023-05-16T08:56:43;24.60;;;12.45;;
29246;SDS011;16272;48.188;9.964;2023-05-16T08:59:10;24.73;;;13.40;;
29246;SDS011;16272;48.188;9.964;2023-05-16T09:01:36;23.23;;;12.87;;
29246;SDS011;16272;48.188;9.964;2023-05-16T09:04:02;23.90;;;12.60;;
29246;SDS011;16272;48.188;9.964;2023-05-16T09:06:29;22.70;;;12.25;;
29246;SDS011;16272;48.188;9.964;2023-05-16T09:08:55;23.10;;;12.40;;
29246;SDS011;16272;48.188;9.964;2023-05-16T09:11:20;21.97;;;11.73;;
29246;SDS011;16272;48.188;9.964;2023-05-16T09:13:46;23.17;;;12.63;;
29246;SDS011;16272;48.188;9.964;2023-05-16T09:16:13;23.30;;;12.25;;
29246;SDS011;16272;48.188;9.964;2023-05-16T09:18:44;22.98;;;12.75;;
29246;SDS011;16272;48.188;9.964;2023-05-16T09:21:12;26.95;;;13.65;;
29246;SDS011;16272;48.188;9.964;2023-05-16T09:23:39;24.35;;;12.68;;
29246;SDS011;16272;48.188;9.964;2023-05-16T09:26:06;23.23;;;12.73;;
29246;SDS011;16272;48.188;9.964;2023-05-16T09:28:32;24.83;;;13.35;;
29246;SDS011;16272;48.188;9.964;2023-05-16T09:30:58;25.37;;;13.30;;
29246;SDS011;16272;48.188;9.964;2023-05-16T09:33:27;23.88;;;12.52;;
29246;SDS011;16272;48.188;9.964;2023-05-16T09:35:53;23.38;;;13.15;;
29246;SDS011;16272;48.188;9.964;2023-05-16T09:38:23;23.63;;;12.25;;
29246;SDS011;16272;48.188;9.964;2023-05-16T09:40:50;25.00;;;13.17;;
29246;SDS011;16272;48.188;9.964;2023-05-16T09:43:16;25.75;;;13.18;;
29246;SDS011;16272;48.188;9.964;2023-05-16T09:45:44;25.92;;;14.00;;
29246;SDS011;16272;48.188;9.964;2023-05-16T09:48:11;25.75;;;13.77;;
29246;SDS011;16272;48.188;9.964;2023-05-16T09:50:38;26.48;;;13.30;;
29246;SDS011;16272;48.188;9.964;2023-05-16T09:53:03;27.67;;;13.60;;
29246;SDS011;16272;48.188;9.964;2023-05-16T09:55:29;28.13;;;14.67;;
29246;SDS011;16272;48.188;9.964;2023-05-16T09:57:56;26.97;;;14.83;;
29246;SDS011;16272;48.188;9.964;2023-05-16T10:00:22;27.00;;;14.15;;
29246;SDS011;16272;48.188;9.964;2023-05-16T10:02:53;27.15;;;13.82;;
29246;SDS011;16272;48.188;9.964;2023-05-16T10:05:21;26.93;;;14.53;;
29246;SDS011;16272;48.188;9.964;2023-05-16T10:07:47;30.23;;;15.05;;
29246;SDS011;16272;48.188;9.964;2023-05-16T10:10:14;28.88;;;15.15;;
29246;SDS011;16272;48.188;9.964;2023-05-16T10:12:41;31.00;;;15.25;;
29246;SDS011;16272;48.188;9.964;2023-05-16T10:15:06;28.98;;;15.23;;
29246;SDS011;16272;48.188;9.964;2023-05-16T10:17:34;29.03;;;15.40;;
29246;SDS011;16272;48.188;9.964;2023-05-16T10:20:02;30.02;;;15.70;;
29246;SDS011;16272;48.188;9.964;2023-05-16T10:22:32;27.70;;;14.85;;
29246;SDS011;16272;48.188;9.964;2023-05-16T10:25:03;27.20;;;14.95;;
29246;SDS011;16272;48.188;9.964;2023-05-16T10:27:35;26.80;;;14.52;;
29246;SDS011;16272;48.188;9.964;2023-05-16T10:30:01;27.97;;;15.07;;
29246;SDS011;16272;48.188;9.964;2023-05-16T10:32:27;27.45;;;15.55;;
29246;SDS011;16272;48.188;9.964;2023-05-16T10:34:53;28.03;;;13.87;;
29246;SDS011;16272;48.188;9.964;2023-05-16T10:37:20;28.45;;;15.05;;
29246;SDS011;16272;48.188;9.964;2023-05-16T10:39:46;30.88;;;14.40;;
29246;SDS011;16272;48.188;9.964;2023-05-16T10:42:12;24.50;;;13.60;;
29246;SDS011;16272;48.188;9.964;2023-05-16T10:44:42;26.17;;;14.18;;
29246;SDS011;16272;48.188;9.964;2023-05-16T10:47:07;27.67;;;14.83;;
29246;SDS011;16272;48.188;9.964;2023-05-16T10:49:32;27.45;;;14.65;;
29246;SDS011;16272;48.188;9.964;2023-05-16T10:52:02;27.03;;;13.50;;
29246;SDS011;16272;48.188;9.964;2023-05-16T10:54:42;24.73;;;13.95;;
29246;SDS011;16272;48.188;9.964;2023-05-16T10:57:15;27.03;;;13.10;;
29246;SDS011;16272;48.188;9.964;2023-05-16T10:59:45;23.90;;;12.73;;
29246;SDS011;16272;48.188;9.964;2023-05-16T11:02:21;24.67;;;13.15;;
29246;SDS011;16272;48.188;9.964;2023-05-16T11:04:55;24.50;;;12.75;;
29246;SDS011;16272;48.188;9.964;2023-05-16T11:07:23;22.15;;;11.73;;
29246;SDS011;16272;48.188;9.964;2023-05-16T11:09:52;21.80;;;11.97;;
29246;SDS011;16272;48.188;9.964;2023-05-16T11:12:45;24.05;;;12.95;;
29246;SDS011;16272;48.188;9.964;2023-05-16T11:15:23;21.52;;;11.85;;
29246;SDS011;16272;48.188;9.964;2023-05-16T11:17:50;20.85;;;11.77;;
29246;SDS011;16272;48.188;9.964;2023-05-16T11:20:32;21.33;;;12.00;;
29246;SDS011;16272;48.188;9.964;2023-05-16T11:25:48;20.65;;;11.05;;
29246;SDS011;16272;48.188;9.964;2023-05-16T11:28:17;21.63;;;12.30;;
29246;SDS011;16272;48.188;9.964;2023-05-16T11:30:53;21.92;;;12.25;;
29246;SDS011;16272;48.188;9.964;2023-05-16T11:33:22;21.58;;;11.95;;
29246;SDS011;16272;48.188;9.964;2023-05-16T11:36:07;21.20;;;12.10;;
29246;SDS011;16272;48.188;9.964;2023-05-16T11:38:33;22.63;;;11.77;;
29246;SDS011;16272;48.188;9.964;2023-05-16T11:41:06;22.58;;;11.00;;
29246;SDS011;16272;48.188;9.964;2023-05-16T11:43:36;20.58;;;11.13;;
29246;SDS011;16272;48.188;9.964;2023-05-16T11:46:03;21.37;;;11.47;;
29246;SDS011;16272;48.188;9.964;2023-05-16T11:48:28;20.20;;;10.73;;
29246;SDS011;16272;48.188;9.964;2023-05-16T11:50:54;19.73;;;9.73;;
29246;SDS011;16272;48.188;9.964;2023-05-16T11:53:20;18.63;;;10.03;;
29246;SDS011;16272;48.188;9.964;2023-05-16T11:55:46;22.70;;;10.50;;
29246;SDS011;16272;48.188;9.964;2023-05-16T11:58:16;16.40;;;8.57;;
29246;SDS011;16272;48.188;9.964;2023-05-16T12:00:48;18.23;;;10.03;;
29246;SDS011;16272;48.188;9.964;2023-05-16T12:03:14;19.52;;;9.95;;
29246;SDS011;16272;48.188;9.964;2023-05-16T12:05:48;17.33;;;9.38;;
29246;SDS011;16272;48.188;9.964;2023-05-16T12:08:19;18.33;;;9.47;;
29246;SDS011;16272;48.188;9.964;2023-05-16T12:10:46;16.48;;;8.43;;
29246;SDS011;16272;48.188;9.964;2023-05-16T12:13:13;17.42;;;9.90;;
29246;SDS011;16272;48.188;9.964;2023-05-16T12:15:40;17.02;;;9.18;;
29246;SDS011;16272;48.188;9.964;2023-05-16T12:18:06;18.90;;;9.43;;
29246;SDS011;16272;48.188;9.964;2023-05-16T12:20:32;15.77;;;9.17;;
29246;SDS011;16272;48.188;9.964;2023-05-16T12:22:57;15.87;;;7.77;;
29246;SDS011;16272;48.188;9.964;2023-05-16T12:25:29;16.33;;;8.25;;
29246;SDS011;16272;48.188;9.964;2023-05-16T12:27:57;16.00;;;8.30;;
29246;SDS011;16272;48.188;9.964;2023-05-16T12:30:24;15.27;;;7.57;;
29246;SDS011;16272;48.188;9.964;2023-05-16T12:33:00;14.43;;;7.60;;
29246;SDS011;16272;48.188;9.964;2023-05-16T12:35:30;14.93;;;7.80;;
29246;SDS011;16272;48.188;9.964;2023-05-16T12:37:57;17.30;;;7.68;;
29246;SDS011;16272;48.188;9.964;2023-05-16T12:40:22;15.27;;;7.50;;
29246;SDS011;16272;48.188;9.964;2023-05-16T12:42:56;14.47;;;7.60;;
29246;SDS011;16272;48.188;9.964;2023-05-16T12:45:22;14.65;;;7.88;;
29246;SDS011;16272;48.188;9.964;2023-05-16T12:47:48;15.75;;;7.55;;
29246;SDS011;16272;48.188;9.964;2023-05-16T12:50:14;17.40;;;9.00;;
29246;SDS011;16272;48.188;9.964;2023-05-16T12:55:22;15.05;;;8.10;;
29246;SDS011;16272;48.188;9.964;2023-05-16T12:57:48;13.30;;;7.43;;
29246;SDS011;16272;48.188;9.964;2023-05-16T13:00:15;15.30;;;8.20;;
29246;SDS011;16272;48.188;9.964;2023-05-16T13:02:46;14.40;;;7.95;;
29246;SDS011;16272;48.188;9.964;2023-05-16T13:05:12;15.68;;;7.85;;
29246;SDS011;16272;48.188;9.964;2023-05-16T13:07:38;15.43;;;7.63;;
29246;SDS011;16272;48.188;9.964;2023-05-16T13:10:09;15.02;;;7.57;;
29246;SDS011;16272;48.188;9.964;2023-05-16T13:12:36;15.25;;;7.70;;
29246;SDS011;16272;48.188;9.964;2023-05-16T13:15:02;15.70;;;7.80;;
29246;SDS011;16272;48.188;9.964;2023-05-16T13:17:28;14.50;;;7.20;;
29246;SDS011;16272;48.188;9.964;2023-05-16T13:19:54;14.23;;;7.53;;
29246;SDS011;16272;48.188;9.964;2023-05-16T13:22:20;16.57;;;8.00;;
29246;SDS011;16272;48.188;9.964;2023-05-16T13:24:45;16.88;;;7.93;;
29246;SDS011;16272;48.188;9.964;2023-05-16T13:27:10;16.17;;;7.83;;
29246;SDS011;16272;48.188;9.964;2023-05-16T13:29:36;14.27;;;7.67;;
29246;SDS011;16272;48.188;9.964;2023-05-16T13:32:01;14.20;;;7.40;;
29246;SDS011;16272;48.188;9.964;2023-05-16T13:34:27;14.63;;;8.00;;
29246;SDS011;16272;48.188;9.964;2023-05-16T13:36:52;14.57;;;7.80;;
29246;SDS011;16272;48.188;9.964;2023-05-16T13:39:18;15.18;;;8.02;;
29246;SDS011;16272;48.188;9.964;2023-05-16T13:41:44;14.97;;;7.83;;
29246;SDS011;16272;48.188;9.964;2023-05-16T13:44:09;15.93;;;8.37;;
29246;SDS011;16272;48.188;9.964;2023-05-16T13:46:35;15.50;;;7.80;;
29246;SDS011;16272;48.188;9.964;2023-05-16T13:49:00;17.13;;;8.40;;
29246;SDS011;16272;48.188;9.964;2023-05-16T13:51:26;15.80;;;8.20;;
29246;SDS011;16272;48.188;9.964;2023-05-16T13:53:51;16.20;;;8.03;;
29246;SDS011;16272;48.188;9.964;2023-05-16T13:56:16;15.50;;;7.80;;
29246;SDS011;16272;48.188;9.964;2023-05-16T13:58:42;16.83;;;8.23;;
29246;SDS011;16272;48.188;9.964;2023-05-16T14:01:07;16.57;;;8.73;;
29246;SDS011;16272;48.188;9.964;2023-05-16T14:03:33;15.47;;;8.07;;
29246;SDS011;16272;48.188;9.964;2023-05-16T14:06:00;16.60;;;8.35;;
29246;SDS011;16272;48.188;9.964;2023-05-16T14:08:25;15.87;;;8.53;;
29246;SDS011;16272;48.188;9.964;2023-05-16T14:10:51;15.32;;;7.85;;
29246;SDS011;16272;48.188;9.964;2023-05-16T14:13:16;17.03;;;8.50;;
29246;SDS011;16272;48.188;9.964;2023-05-16T14:15:42;16.40;;;8.97;;
29246;SDS011;16272;48.188;9.964;2023-05-16T14:18:08;18.38;;;9.57;;
29246;SDS011;16272;48.188;9.964;2023-05-16T14:20:33;18.40;;;9.13;;
29246;SDS011;16272;48.188;9.964;2023-05-16T14:22:58;15.63;;;8.73;;
29246;SDS011;16272;48.188;9.964;2023-05-16T14:25:24;18.80;;;9.57;;
29246;SDS011;16272;48.188;9.964;2023-05-16T14:27:49;18.70;;;9.97;;
29246;SDS011;16272;48.188;9.964;2023-05-16T14:30:15;18.00;;;9.47;;
29246;SDS011;16272;48.188;9.964;2023-05-16T14:32:40;18.88;;;10.15;;
29246;SDS011;16272;48.188;9.964;2023-05-16T14:35:07;21.27;;;9.80;;
29246;SDS011;16272;48.188;9.964;2023-05-16T14:37:35;17.42;;;8.85;;
29246;SDS011;16272;48.188;9.964;2023-05-16T14:40:01;17.97;;;8.83;;
29246;SDS011;16272;48.188;9.964;2023-05-16T14:42:26;19.70;;;9.97;;
29246;SDS011;16272;48.188;9.964;2023-05-16T14:44:51;19.27;;;9.77;;
29246;SDS011;16272;48.188;9.964;2023-05-16T14:47:17;18.60;;;9.77;;